Time;durP1;ratioP1;P1;durP2;ratioP2;P2;SDS_P1;SDS_P2;PMS_P1;PMS_P2;Temp;Humidity;BMP_temperature;BMP_pressure;BME280_temperature;BME280_humidity;BME280_pressure;Samples;Min_cycle;Max_cycle;Signal;HPM_P1;HPM_P2
2022/12/10 00:01:25;;;;;;;12.10;11.23;;;;;;;3.74;64.11;100743.06;5016619;28;20049;-70
2022/12/10 00:03:51;;;;;;;14.55;13.25;;;;;;;3.73;64.21;100746.78;5016415;28;20029;-71
2022/12/10 00:06:20;;;;;;;14.52;13.52;;;;;;;3.72;64.42;100739.75;5017302;28;20148;-70
2022/12/10 00:08:45;;;;;;;11.70;10.93;;;;;;;3.72;64.26;100747.78;5016303;28;20096;-70
2022/12/10 00:11:13;;;;;;;15.57;14.10;;;;;;;3.71;64.16;100742.66;5014643;28;20506;-70
2022/12/10 00:13:39;;;;;;;13.20;12.30;;;;;;;3.71;64.59;100745.31;5016998;28;20394;-70
2022/12/10 00:16:08;;;;;;;14.27;13.27;;;;;;;3.68;64.28;100747.34;5012097;28;20037;-70
2022/12/10 00:18:35;;;;;;;13.88;12.77;;;;;;;3.69;64.11;100751.66;5012891;28;20041;-70
2022/12/10 00:21:05;;;;;;;12.88;11.88;;;;;;;3.68;64.18;100751.88;5011248;28;20030;-70
2022/12/10 00:23:32;;;;;;;13.63;12.65;;;;;;;3.67;64.45;100752.88;5013760;28;20456;-70
2022/12/10 00:26:10;;;;;;;14.98;13.88;;;;;;;3.66;64.44;100752.06;5013378;28;20022;-70
2022/12/10 00:28:36;;;;;;;13.13;12.32;;;;;;;3.65;64.18;100750.44;5013712;28;20021;-70
2022/12/10 00:31:23;;;;;;;13.85;12.75;;;;;;;3.66;64.04;100761.94;5010970;28;20128;-72
2022/12/10 00:33:49;;;;;;;16.33;15.20;;;;;;;3.64;64.12;100761.28;5014523;28;20029;-70
2022/12/10 00:36:18;;;;;;;17.45;16.10;;;;;;;3.64;64.46;100769.31;5012879;28;20511;-71
2022/12/10 00:38:44;;;;;;;14.25;12.10;;;;;;;3.62;64.20;100766.00;5013807;28;20109;-70
2022/12/10 00:41:10;;;;;;;14.45;13.32;;;;;;;3.62;64.43;100769.50;5012863;28;20030;-70
2022/12/10 00:43:36;;;;;;;20.80;15.77;;;;;;;3.61;64.52;100759.84;5007738;28;20371;-71
2022/12/10 00:46:01;;;;;;;12.82;11.93;;;;;;;3.60;64.05;100763.56;5012994;28;20470;-69
2022/12/10 00:48:27;;;;;;;16.88;15.45;;;;;;;3.60;64.35;100760.88;5013362;28;20073;-71
2022/12/10 00:51:09;;;;;;;14.60;13.50;;;;;;;3.59;64.40;100763.72;5012883;28;20536;-70
2022/12/10 00:53:35;;;;;;;15.52;14.40;;;;;;;3.59;64.20;100766.41;5009580;28;20075;-70
2022/12/10 00:56:03;;;;;;;15.32;13.93;;;;;;;3.58;64.32;100762.06;5010954;28;20626;-70
2022/12/10 00:58:30;;;;;;;15.10;13.68;;;;;;;3.57;64.06;100763.91;5013617;28;20045;-72
2022/12/10 01:01:12;;;;;;;18.35;16.95;;;;;;;3.56;64.32;100756.13;4998134;28;20409;-70
2022/12/10 01:03:39;;;;;;;15.75;14.38;;;;;;;3.54;64.21;100753.63;5012195;28;20041;-71
2022/12/10 01:06:16;;;;;;;14.68;13.38;;;;;;;3.53;64.22;100754.66;5011945;28;20042;-70
2022/12/10 01:08:42;;;;;;;13.30;12.40;;;;;;;3.53;64.20;100756.47;5012698;28;20021;-70
2022/12/10 01:11:10;;;;;;;16.27;14.85;;;;;;;3.52;64.65;100758.34;5012561;28;20033;-71
2022/12/10 01:13:36;;;;;;;13.73;12.43;;;;;;;3.52;64.28;100750.31;5006853;28;20569;-70
2022/12/10 01:16:04;;;;;;;13.73;12.60;;;;;;;3.51;64.43;100745.19;5011676;28;20060;-70
2022/12/10 01:18:29;;;;;;;11.52;10.88;;;;;;;3.50;64.57;100752.38;5013129;28;20042;-71
2022/12/10 01:20:55;;;;;;;14.80;13.45;;;;;;;3.50;64.29;100747.03;5012576;28;20109;-71
2022/12/10 01:23:20;;;;;;;11.52;10.63;;;;;;;3.50;64.33;100746.19;5011309;28;20037;-70
2022/12/10 01:25:45;;;;;;;11.35;10.73;;;;;;;3.49;64.20;100744.56;5017972;28;20390;-72
2022/12/10 01:28:11;;;;;;;12.93;11.90;;;;;;;3.47;64.67;100742.91;5010309;28;20034;-72
2022/12/10 01:30:36;;;;;;;14.02;12.73;;;;;;;3.46;64.25;100743.94;5012777;28;20046;-70
2022/12/10 01:33:02;;;;;;;14.75;13.20;;;;;;;3.46;64.40;100730.56;5012206;28;20030;-71
2022/12/10 01:35:27;;;;;;;12.68;11.82;;;;;;;3.45;64.61;100741.44;5003924;28;20072;-71
2022/12/10 01:37:52;;;;;;;10.55;9.80;;;;;;;3.44;64.26;100751.31;5010279;28;20092;-74
2022/12/10 01:40:18;;;;;;;10.73;10.07;;;;;;;3.44;64.28;100756.66;5012976;28;20037;-69
2022/12/10 01:42:43;;;;;;;11.95;11.23;;;;;;;3.44;64.36;100761.16;5012404;28;20460;-70
2022/12/10 01:45:12;;;;;;;13.43;12.43;;;;;;;3.43;64.75;100749.66;5012013;28;20037;-69
2022/12/10 01:47:37;;;;;;;13.38;12.20;;;;;;;3.43;64.53;100759.53;5007564;28;20497;-69
2022/12/10 01:50:06;;;;;;;13.35;12.35;;;;;;;3.41;64.50;100754.38;5010145;28;20038;-70
2022/12/10 01:52:32;;;;;;;16.83;14.98;;;;;;;3.40;64.44;100758.06;5012567;28;20034;-71
2022/12/10 01:54:57;;;;;;;13.30;12.32;;;;;;;3.40;64.35;100758.06;5005359;28;20041;-71
2022/12/10 01:57:25;;;;;;;21.73;18.25;;;;;;;3.41;64.47;100761.56;5023708;28;20116;-70
2022/12/10 01:59:58;;;;;;;11.98;11.15;;;;;;;3.41;64.70;100761.56;5012515;28;20030;-70
2022/12/10 02:02:42;;;;;;;10.75;10.05;;;;;;;3.39;64.71;100761.75;5010261;28;20026;-71
2022/12/10 02:05:31;;;;;;;21.60;14.10;;;;;;;3.39;64.46;100767.09;5010802;28;20112;-70
2022/12/10 02:08:10;;;;;;;11.13;10.43;;;;;;;3.38;64.59;100767.31;5028940;28;20505;-74
2022/12/10 02:10:50;;;;;;;;;;;;;;;3.38;64.38;100769.97;5013241;28;20116;-70
2022/12/10 02:13:21;;;;;;;22.10;17.75;;;;;;;3.35;64.04;100773.84;5009983;28;19924;-70
2022/12/10 02:16:02;;;;;;;20.63;15.57;;;;;;;3.35;64.28;100781.88;5006020;28;20055;-71
2022/12/10 02:18:35;;;;;;;12.20;11.43;;;;;;;3.35;64.56;100784.53;5021341;28;20554;-69
2022/12/10 02:21:19;;;;;;;14.52;13.45;;;;;;;3.35;64.31;100787.22;5011456;28;20054;-70
2022/12/10 02:23:51;;;;;;;12.50;11.65;;;;;;;3.35;64.27;100781.00;5010092;28;20083;-70
2022/12/10 02:26:38;;;;;;;14.07;13.02;;;;;;;3.34;64.43;100784.72;5007927;28;20029;-69
2022/12/10 02:29:13;;;;;;;15.65;14.10;;;;;;;3.33;64.52;100785.75;4992056;28;20049;-70
2022/12/10 02:31:43;;;;;;;15.55;14.00;;;;;;;3.32;64.67;100782.22;5012297;28;20038;-71
2022/12/10 02:34:10;;;;;;;13.68;12.60;;;;;;;3.32;64.89;100784.91;5012870;28;20112;-71
2022/12/10 02:36:40;;;;;;;13.80;12.75;;;;;;;3.32;64.54;100781.41;5012256;28;20030;-72
2022/12/10 02:39:10;;;;;;;21.92;14.07;;;;;;;3.32;64.54;100784.09;5027019;28;20393;-71
2022/12/10 02:41:40;;;;;;;13.85;12.82;;;;;;;3.32;64.70;100790.25;5002141;28;20105;-69
2022/12/10 02:44:10;;;;;;;13.93;12.73;;;;;;;3.32;64.53;100786.75;4998120;28;20332;-71
2022/12/10 02:46:38;;;;;;;13.77;12.55;;;;;;;3.31;64.59;100788.59;5012272;28;20030;-70
2022/12/10 02:49:06;;;;;;;13.18;12.25;;;;;;;3.31;64.81;100782.44;5010533;28;20026;-73
2022/12/10 02:51:32;;;;;;;14.52;13.40;;;;;;;3.31;64.72;100785.94;5009501;28;20116;-70
2022/12/10 02:54:03;;;;;;;10.50;9.80;;;;;;;3.31;64.61;100779.78;5011201;28;20037;-71
2022/12/10 02:56:51;;;;;;;19.63;15.98;;;;;;;3.31;64.58;100775.25;5009196;28;20045;-71
2022/12/10 02:59:26;;;;;;;15.00;13.95;;;;;;;3.29;64.73;100779.94;5011872;28;20057;-70
2022/12/10 03:01:52;;;;;;;16.55;15.00;;;;;;;3.30;65.00;100775.44;5010303;28;20030;-71
2022/12/10 03:04:25;;;;;;;14.63;13.45;;;;;;;3.29;64.90;100774.63;5011606;28;20030;-70
2022/12/10 03:07:00;;;;;;;16.73;15.05;;;;;;;3.29;64.39;100776.47;5010915;28;20030;-71
2022/12/10 03:09:41;;;;;;;16.63;13.52;;;;;;;3.28;64.51;100772.97;5009880;28;20045;-72
2022/12/10 03:12:20;;;;;;;11.63;10.38;;;;;;;3.29;64.46;100769.28;5010324;28;20041;-75
2022/12/10 03:14:46;;;;;;;13.85;12.18;;;;;;;3.28;64.49;100769.50;5011673;28;20099;-71
2022/12/10 03:17:13;;;;;;;15.35;14.13;;;;;;;3.28;65.08;100767.63;5014987;28;20030;-70
2022/12/10 03:19:46;;;;;;;13.45;12.57;;;;;;;3.27;64.74;100773.97;5011318;28;20030;-70
2022/12/10 03:22:16;;;;;;;12.63;11.65;;;;;;;3.27;64.84;100776.66;5007729;28;20033;-70
2022/12/10 03:24:43;;;;;;;15.38;13.95;;;;;;;3.28;64.51;100769.50;5009971;28;20072;-71
2022/12/10 03:27:10;;;;;;;14.18;13.15;;;;;;;3.27;64.66;100776.66;5011760;28;20460;-72
2022/12/10 03:29:45;;;;;;;12.73;11.60;;;;;;;3.28;64.55;100772.16;5010703;28;20474;-70
2022/12/10 03:32:11;;;;;;;14.23;13.15;;;;;;;3.27;64.72;100776.66;4991404;28;20034;-71
2022/12/10 03:34:37;;;;;;;11.25;10.55;;;;;;;3.26;64.47;100775.00;5007577;28;20084;-71
2022/12/10 03:37:03;;;;;;;13.95;12.85;;;;;;;3.25;64.91;100779.53;5011528;28;20037;-71
2022/12/10 03:39:29;;;;;;;16.60;15.10;;;;;;;3.25;64.84;100778.69;5010370;28;20207;-71
2022/12/10 03:41:54;;;;;;;12.05;11.23;;;;;;;3.25;64.72;100778.69;5010067;28;20485;-71
2022/12/10 03:44:37;;;;;;;16.58;14.07;;;;;;;3.25;64.53;100778.69;5009421;28;20029;-71
2022/12/10 03:47:06;;;;;;;17.52;15.02;;;;;;;3.24;64.76;100780.53;5009145;28;20157;-70
2022/12/10 03:49:31;;;;;;;14.45;13.35;;;;;;;3.24;64.64;100780.53;5008464;28;20030;-71
2022/12/10 03:51:57;;;;;;;22.30;14.85;;;;;;;3.25;64.95;100781.34;5014085;28;20033;-72
2022/12/10 03:54:22;;;;;;;12.65;11.63;;;;;;;3.24;64.89;100780.53;5013485;28;20164;-74
2022/12/10 03:56:48;;;;;;;21.88;15.63;;;;;;;3.25;64.53;100789.34;5009274;28;20038;-72
2022/12/10 03:59:14;;;;;;;15.05;13.65;;;;;;;3.24;64.46;100785.06;5008650;28;20378;-71
2022/12/10 04:01:40;;;;;;;10.57;9.90;;;;;;;3.23;64.96;100786.91;5011649;28;20363;-72
2022/12/10 04:04:06;;;;;;;17.33;15.65;;;;;;;3.23;64.55;100783.41;5014347;28;20029;-71
2022/12/10 04:06:31;;;;;;;11.65;10.95;;;;;;;3.22;64.79;100787.09;5005165;28;20030;-69
2022/12/10 04:08:57;;;;;;;16.25;14.95;;;;;;;3.22;64.61;100787.09;5015071;28;20486;-71
2022/12/10 04:11:23;;;;;;;28.17;18.10;;;;;;;3.23;64.49;100784.22;5013888;28;20396;-70
2022/12/10 04:16:34;;;;;;;15.10;13.77;;;;;;;3.23;64.56;100794.09;5012800;28;20736;-71
2022/12/10 04:19:12;;;;;;;29.10;17.48;;;;;;;3.22;64.89;100779.06;5024004;28;20108;-70
2022/12/10 04:27:22;;;;;;;19.10;12.63;;;;;;;3.20;64.78;100791.78;5013346;28;20428;-70
2022/12/10 04:29:47;;;;;;;12.70;11.93;;;;;;;3.19;64.65;100785.63;5016905;28;20130;-72
2022/12/10 04:32:13;;;;;;;11.30;10.57;;;;;;;3.19;65.04;100790.97;5014140;28;20552;-71
2022/12/10 04:34:38;;;;;;;14.05;12.95;;;;;;;3.19;64.63;100796.31;5011881;28;20038;-71
2022/12/10 04:37:04;;;;;;;13.40;12.57;;;;;;;3.19;64.94;100803.50;5012492;28;20102;-69
2022/12/10 04:39:30;;;;;;;25.15;17.98;;;;;;;3.19;65.04;100806.16;5014250;28;20026;-71
2022/12/10 04:41:55;;;;;;;10.73;10.13;;;;;;;3.17;64.57;100806.34;5013889;28;20041;-71
2022/12/10 04:44:21;;;;;;;36.55;19.00;;;;;;;3.18;64.96;100807.19;5011825;28;20026;-71
2022/12/10 04:46:47;;;;;;;16.55;13.40;;;;;;;3.18;64.60;100804.53;5013561;28;20045;-69
2022/12/10 04:49:13;;;;;;;10.73;10.07;;;;;;;3.17;64.80;100797.50;5013648;28;20477;-71
2022/12/10 04:51:39;;;;;;;38.33;17.60;;;;;;;3.17;64.79;100803.66;5012078;28;20073;-71
2022/12/10 04:54:05;;;;;;;12.07;11.18;;;;;;;3.17;64.76;100794.84;5012307;28;20034;-71
2022/12/10 04:56:31;;;;;;;14.25;13.23;;;;;;;3.17;64.66;100809.00;5011187;28;20468;-72
2022/12/10 04:58:56;;;;;;;19.17;17.35;;;;;;;3.17;64.73;100806.34;5010962;28;20034;-72
2022/12/10 05:01:22;;;;;;;13.25;12.27;;;;;;;3.18;64.92;100808.00;5014192;28;20038;-73
2022/12/10 05:03:47;;;;;;;32.08;12.88;;;;;;;3.18;64.89;100813.34;5013437;28;20469;-71
2022/12/10 05:06:15;;;;;;;14.48;13.43;;;;;;;3.17;64.95;100811.69;5013217;28;20113;-72
2022/12/10 05:08:41;;;;;;;14.43;12.00;;;;;;;3.17;65.04;100806.34;5016031;28;20442;-74
2022/12/10 05:11:10;;;;;;;12.60;11.30;;;;;;;3.17;64.70;100805.53;5006203;28;20045;-73
2022/12/10 05:13:35;;;;;;;13.60;12.48;;;;;;;3.16;64.60;100804.69;5019947;28;20030;-74
2022/12/10 05:16:02;;;;;;;13.38;12.38;;;;;;;3.17;64.71;100800.19;5012924;28;20050;-74
2022/12/10 05:18:27;;;;;;;16.75;15.43;;;;;;;3.16;64.63;100803.88;5012508;28;20445;-72
2022/12/10 05:20:53;;;;;;;13.63;12.30;;;;;;;3.16;65.09;100798.53;5009351;28;20038;-72
2022/12/10 05:23:27;;;;;;;13.68;12.77;;;;;;;3.16;64.86;100802.03;5014253;28;20449;-71
2022/12/10 05:25:59;;;;;;;10.88;10.27;;;;;;;3.17;64.68;100805.53;5012136;28;20029;-72
2022/12/10 05:28:25;;;;;;;12.88;11.95;;;;;;;3.16;64.68;100806.56;5012118;28;20062;-72
2022/12/10 05:30:51;;;;;;;28.77;18.05;;;;;;;3.15;64.66;100807.56;5010133;28;20088;-73
2022/12/10 05:33:16;;;;;;;11.15;10.55;;;;;;;3.15;64.79;100807.56;5011289;28;20033;-73
2022/12/10 05:35:44;;;;;;;12.48;11.57;;;;;;;3.14;64.78;100808.59;5012248;28;20709;-72
2022/12/10 05:38:10;;;;;;;17.08;14.50;;;;;;;3.14;64.99;100804.06;5012682;28;20108;-73
2022/12/10 05:40:38;;;;;;;14.65;12.65;;;;;;;3.14;64.96;100801.41;5010383;28;20029;-73
2022/12/10 05:43:04;;;;;;;17.15;14.40;;;;;;;3.14;64.91;100801.41;5012761;28;20038;-73
2022/12/10 05:45:31;;;;;;;16.10;14.88;;;;;;;3.14;65.15;100805.91;5012259;28;20036;-71
2022/12/10 05:47:57;;;;;;;12.75;11.75;;;;;;;3.14;65.00;100806.72;5012415;28;20042;-72
2022/12/10 05:50:22;;;;;;;12.90;11.60;;;;;;;3.13;64.71;100813.09;5011827;28;20075;-74
2022/12/10 05:52:50;;;;;;;10.68;10.07;;;;;;;3.12;65.10;100808.75;5011184;28;20068;-73
2022/12/10 05:55:16;;;;;;;10.63;10.02;;;;;;;3.12;65.02;100811.44;5012246;28;20030;-73
2022/12/10 05:57:41;;;;;;;13.63;12.15;;;;;;;3.12;64.82;100811.44;5011869;28;20034;-74
2022/12/10 06:00:07;;;;;;;12.85;11.73;;;;;;;3.12;64.90;100819.44;5011888;28;20053;-73
2022/12/10 06:02:33;;;;;;;12.93;12.02;;;;;;;3.13;65.02;100820.28;5010443;28;20066;-72
2022/12/10 06:04:58;;;;;;;27.27;19.13;;;;;;;3.11;65.18;100817.78;5012679;28;20076;-71
2022/12/10 06:07:24;;;;;;;11.55;10.80;;;;;;;3.11;64.86;100817.78;5011825;28;20544;-71
2022/12/10 06:09:49;;;;;;;12.27;11.43;;;;;;;3.11;64.77;100823.13;5010208;28;20034;-73
2022/12/10 06:12:14;;;;;;;12.48;10.43;;;;;;;3.11;64.90;100820.47;5009650;28;20041;-73
2022/12/10 06:14:40;;;;;;;16.77;15.35;;;;;;;3.10;65.17;100816.16;5009229;28;20092;-72
2022/12/10 06:17:05;;;;;;;13.85;11.38;;;;;;;3.11;64.66;100817.78;5011945;28;20581;-75
2022/12/10 06:19:30;;;;;;;15.10;13.75;;;;;;;3.10;64.74;100817.97;5011136;28;20445;-75
2022/12/10 06:21:58;;;;;;;11.80;11.10;;;;;;;3.10;64.74;100820.66;5017277;28;20452;-72
2022/12/10 06:24:24;;;;;;;11.25;10.52;;;;;;;3.10;64.71;100823.31;5026511;28;20034;-72
2022/12/10 06:26:49;;;;;;;12.00;11.20;;;;;;;3.10;64.68;100825.97;5009368;28;20153;-76
2022/12/10 06:29:15;;;;;;;12.23;11.40;;;;;;;3.10;64.71;100825.97;5011865;28;20463;-73
2022/12/10 06:31:40;;;;;;;17.23;13.35;;;;;;;3.10;64.78;100824.16;5010205;28;20057;-71
2022/12/10 06:34:05;;;;;;;16.98;15.55;;;;;;;3.10;64.83;100836.66;5021569;28;20095;-71
2022/12/10 06:36:31;;;;;;;21.40;15.05;;;;;;;3.10;65.08;100831.31;5010241;28;20101;-71
2022/12/10 06:38:56;;;;;;;13.65;12.82;;;;;;;3.09;64.88;100830.50;5011629;28;20041;-74
2022/12/10 06:41:22;;;;;;;14.23;13.15;;;;;;;3.09;65.07;100830.50;5010913;28;20034;-73
2022/12/10 06:43:48;;;;;;;12.55;11.65;;;;;;;3.10;65.04;100844.66;5011156;28;20030;-77
2022/12/10 06:46:16;;;;;;;13.60;12.55;;;;;;;3.09;65.11;100849.19;5009744;28;20129;-74
2022/12/10 06:48:42;;;;;;;14.20;13.03;;;;;;;3.08;64.97;100844.88;5011137;28;20525;-71
2022/12/10 06:51:08;;;;;;;19.48;15.43;;;;;;;3.09;65.16;100846.50;5011397;28;20144;-73
2022/12/10 06:53:35;;;;;;;25.17;15.50;;;;;;;3.09;64.71;100851.03;5015083;28;20481;-73
2022/12/10 06:56:01;;;;;;;10.40;9.80;;;;;;;3.08;64.80;100850.22;5015352;28;20397;-71
2022/12/10 06:58:28;;;;;;;10.88;10.27;;;;;;;3.08;65.04;100860.06;5009645;28;20125;-73
2022/12/10 07:00:54;;;;;;;11.52;10.77;;;;;;;3.08;65.04;100857.41;5010793;28;20026;-73
2022/12/10 07:03:19;;;;;;;11.45;10.75;;;;;;;3.07;65.20;100859.22;5009201;28;20501;-72
2022/12/10 07:05:44;;;;;;;29.33;21.50;;;;;;;3.08;65.09;100860.06;5009492;28;20466;-73
2022/12/10 07:08:10;;;;;;;16.90;14.48;;;;;;;3.08;64.97;100860.06;5015654;28;20033;-73
2022/12/10 07:10:37;;;;;;;11.85;11.05;;;;;;;3.07;64.85;100861.06;5010899;28;20070;-73
2022/12/10 07:13:02;;;;;;;10.48;9.85;;;;;;;3.07;64.97;100861.06;5010468;28;20033;-74
2022/12/10 07:15:28;;;;;;;11.07;10.43;;;;;;;3.06;65.00;100870.09;5010958;28;20050;-72
2022/12/10 07:17:54;;;;;;;13.35;12.45;;;;;;;3.06;65.18;100870.91;5011979;28;20117;-74
2022/12/10 07:20:19;;;;;;;11.00;10.30;;;;;;;3.06;65.19;100867.44;5009343;28;20056;-71
2022/12/10 07:22:45;;;;;;;23.35;13.93;;;;;;;3.05;65.02;100866.59;5010916;28;20022;-72
2022/12/10 07:25:10;;;;;;;13.73;12.68;;;;;;;3.06;65.07;100870.09;5013143;28;20367;-73
2022/12/10 07:27:36;;;;;;;15.57;13.05;;;;;;;3.06;65.01;100860.25;5015011;28;20433;-78
2022/12/10 07:30:01;;;;;;;14.48;13.27;;;;;;;3.04;64.93;100862.28;5015978;28;20474;-73
2022/12/10 07:32:27;;;;;;;12.48;11.25;;;;;;;3.03;64.83;100861.44;5014517;28;20060;-73
2022/12/10 07:34:53;;;;;;;21.33;14.20;;;;;;;3.05;65.01;100866.59;5005025;28;20482;-73
2022/12/10 07:37:18;;;;;;;13.50;12.10;;;;;;;3.05;65.00;100866.59;5012994;28;20049;-73
2022/12/10 07:39:44;;;;;;;16.30;14.85;;;;;;;3.06;64.68;100867.44;5013773;28;20069;-72
2022/12/10 07:42:09;;;;;;;12.68;11.70;;;;;;;3.05;64.90;100866.59;5013452;28;20053;-71
2022/12/10 07:44:34;;;;;;;12.93;11.77;;;;;;;3.04;65.09;100871.09;5013442;28;20447;-78
2022/12/10 07:47:00;;;;;;;12.90;11.65;;;;;;;3.04;64.79;100872.94;4996487;28;20026;-74
2022/12/10 07:49:25;;;;;;;12.77;11.93;;;;;;;3.04;65.12;100879.09;5015658;28;20387;-74
2022/12/10 07:51:51;;;;;;;14.52;13.45;;;;;;;3.04;65.19;100886.28;5014165;28;20077;-72
2022/12/10 07:54:17;;;;;;;12.60;11.70;;;;;;;3.03;64.80;100890.00;5012124;28;20038;-73
2022/12/10 07:56:44;;;;;;;15.65;14.18;;;;;;;3.03;64.75;100890.81;4999861;28;20034;-73
2022/12/10 07:59:10;;;;;;;25.23;17.90;;;;;;;3.04;64.93;100879.09;5015043;28;20030;-73
2022/12/10 08:01:35;;;;;;;10.75;10.13;;;;;;;3.03;65.06;100888.13;5030083;28;20059;-73
2022/12/10 08:04:01;;;;;;;13.25;12.02;;;;;;;3.01;64.96;100887.50;5012921;28;20469;-74
2022/12/10 08:06:28;;;;;;;13.98;12.93;;;;;;;3.02;65.13;100894.50;5011367;28;20456;-73
2022/12/10 08:08:53;;;;;;;26.00;15.68;;;;;;;3.02;65.11;100893.66;5013637;28;20109;-73
2022/12/10 08:11:20;;;;;;;11.25;10.45;;;;;;;3.03;64.90;100900.66;5015254;28;20088;-71
2022/12/10 08:13:47;;;;;;;13.85;12.80;;;;;;;3.02;65.25;100902.50;5012721;28;20493;-73
2022/12/10 08:16:15;;;;;;;15.38;13.43;;;;;;;3.01;65.04;100911.50;5011694;28;20461;-72
2022/12/10 08:18:41;;;;;;;13.68;12.65;;;;;;;3.02;64.85;100909.66;5013011;28;20164;-75
2022/12/10 08:21:15;;;;;;;12.32;11.35;;;;;;;3.01;65.23;100908.03;5017881;28;20069;-72
2022/12/10 08:23:41;;;;;;;12.82;11.90;;;;;;;3.00;65.05;100909.88;5013149;28;20580;-74
2022/12/10 08:26:12;;;;;;;11.50;10.43;;;;;;;3.00;64.75;100912.53;5009508;28;20056;-75
2022/12/10 08:28:38;;;;;;;10.88;10.18;;;;;;;3.00;64.96;100912.53;5005332;28;20027;-72
2022/12/10 08:31:05;;;;;;;11.95;11.15;;;;;;;3.00;65.26;100917.06;5006470;28;20037;-73
2022/12/10 08:33:34;;;;;;;13.00;11.95;;;;;;;3.00;65.12;100920.53;5013857;28;20437;-74
2022/12/10 08:35:59;;;;;;;;;;;;;;;2.99;65.14;100921.53;5009568;28;20033;-73
2022/12/10 08:38:25;;;;;;;12.00;11.05;;;;;;;2.98;65.11;100932.44;5012298;28;19913;-72
2022/12/10 08:40:51;;;;;;;13.13;12.00;;;;;;;2.98;65.16;100929.75;5011599;28;20038;-73
2022/12/10 08:43:16;;;;;;;16.63;13.32;;;;;;;2.97;65.07;100926.28;5020306;28;20032;-71
2022/12/10 08:45:41;;;;;;;14.95;13.95;;;;;;;2.98;64.95;100929.75;5019694;28;20486;-72
2022/12/10 08:48:07;;;;;;;11.85;11.05;;;;;;;2.97;65.16;100936.09;5001716;28;20042;-72
2022/12/10 08:50:32;;;;;;;15.32;13.18;;;;;;;2.97;65.30;100939.59;5013533;28;20026;-74
2022/12/10 08:52:57;;;;;;;15.32;13.95;;;;;;;2.97;65.18;100928.94;5019348;28;20053;-71
2022/12/10 08:55:23;;;;;;;16.05;13.07;;;;;;;2.98;65.19;100935.91;5020990;28;20034;-72
2022/12/10 08:57:48;;;;;;;18.25;16.15;;;;;;;2.97;65.26;100933.41;5012060;28;20525;-72
2022/12/10 09:00:14;;;;;;;20.92;13.10;;;;;;;2.97;64.85;100936.94;5013316;28;20490;-71
2022/12/10 09:02:39;;;;;;;12.40;11.35;;;;;;;2.97;64.89;100936.94;5012893;28;20042;-73
2022/12/10 09:05:06;;;;;;;13.23;12.02;;;;;;;2.98;64.85;100943.09;5019683;28;20122;-73
2022/12/10 09:07:31;;;;;;;13.65;12.85;;;;;;;2.98;65.12;100948.44;5012138;28;20037;-72
2022/12/10 09:09:59;;;;;;;13.77;12.55;;;;;;;2.98;65.09;100949.25;5012176;28;20057;-70
2022/12/10 09:12:25;;;;;;;14.73;13.35;;;;;;;2.98;64.95;100949.25;5012814;28;20034;-71
2022/12/10 09:14:51;;;;;;;14.95;13.35;;;;;;;2.98;65.13;100949.25;5014536;28;20114;-72
2022/12/10 09:17:16;;;;;;;16.98;12.80;;;;;;;2.97;65.23;100950.28;5010756;28;20038;-72
2022/12/10 09:19:41;;;;;;;12.23;11.43;;;;;;;2.98;64.96;100951.09;5011828;28;20084;-73
2022/12/10 09:22:08;;;;;;;11.82;10.98;;;;;;;2.99;65.21;100950.06;5012533;28;20226;-72
2022/12/10 09:24:33;;;;;;;9.35;8.85;;;;;;;2.97;64.94;100952.94;5012485;28;20022;-71
2022/12/10 09:27:00;;;;;;;16.70;14.82;;;;;;;2.98;64.82;100957.25;5005225;28;20095;-71
2022/12/10 09:29:26;;;;;;;13.02;11.55;;;;;;;2.97;65.17;100958.28;5020870;28;20426;-72
2022/12/10 09:31:51;;;;;;;15.40;11.55;;;;;;;2.98;64.89;100959.94;5016506;28;20033;-73
2022/12/10 09:34:17;;;;;;;9.73;9.13;;;;;;;2.98;65.36;100967.13;5012692;28;20038;-74
2022/12/10 09:36:42;;;;;;;20.67;14.23;;;;;;;2.98;64.85;100961.78;5010121;28;20034;-71
2022/12/10 09:39:08;;;;;;;13.52;11.65;;;;;;;2.98;64.94;100965.25;5011948;28;20026;-72
2022/12/10 09:41:58;;;;;;;15.20;13.02;;;;;;;2.97;64.90;100963.63;5012582;28;20081;-72
2022/12/10 09:44:49;;;;;;;12.93;12.05;;;;;;;2.98;65.10;100957.25;5012562;28;20061;-72
2022/12/10 09:47:16;;;;;;;10.20;9.60;;;;;;;2.97;65.00;100966.28;5008118;28;20494;-73
2022/12/10 09:49:44;;;;;;;11.07;10.38;;;;;;;2.98;65.33;100961.78;5018887;28;20029;-71
2022/12/10 09:52:15;;;;;;;17.70;13.48;;;;;;;2.97;65.10;100960.97;5011911;28;20113;-73
2022/12/10 09:55:01;;;;;;;15.57;14.23;;;;;;;2.96;65.36;100959.28;5012505;28;20040;-72
2022/12/10 09:57:38;;;;;;;13.43;12.30;;;;;;;2.96;65.19;100961.13;5010246;28;20038;-71
2022/12/10 10:00:17;;;;;;;15.60;13.95;;;;;;;2.96;65.13;100964.63;5011162;28;20478;-72
2022/12/10 10:02:43;;;;;;;;;;;;;;;2.96;64.97;100972.63;5012413;28;20028;-70
2022/12/10 10:05:08;;;;;;;14.18;13.10;;;;;;;2.95;65.30;100970.97;5011771;28;19913;-72
2022/12/10 10:07:38;;;;;;;11.57;10.73;;;;;;;2.94;65.03;100971.97;5010327;28;20117;-73
2022/12/10 10:10:16;;;;;;;15.23;13.55;;;;;;;2.94;65.20;100979.16;5011664;28;20108;-71
2022/12/10 10:12:42;;;;;;;12.15;11.27;;;;;;;2.95;65.29;100976.31;5011737;28;20034;-71
2022/12/10 10:15:18;;;;;;;14.25;12.98;;;;;;;2.95;65.26;100979.00;5011569;28;20050;-72
2022/12/10 10:17:46;;;;;;;18.23;16.15;;;;;;;2.95;65.03;100984.31;5010855;28;20524;-70
2022/12/10 10:20:13;;;;;;;13.48;12.02;;;;;;;2.95;65.22;100973.66;5010314;28;20030;-68
2022/12/10 10:22:40;;;;;;;19.00;14.10;;;;;;;2.97;65.40;100984.97;5011372;28;20153;-70
2022/12/10 10:25:13;;;;;;;27.15;18.85;;;;;;;2.98;65.05;100983.13;5011459;28;20030;-70
2022/12/10 10:27:39;;;;;;;11.85;10.82;;;;;;;2.98;65.05;100972.44;5011827;28;20285;-70
2022/12/10 10:30:07;;;;;;;13.88;12.50;;;;;;;2.98;65.04;100977.78;5006095;28;20045;-70
2022/12/10 10:32:35;;;;;;;12.70;11.43;;;;;;;2.98;65.17;100972.44;5008174;28;20058;-69
2022/12/10 10:35:02;;;;;;;12.70;11.52;;;;;;;2.99;65.30;100979.44;5011446;28;20069;-70
2022/12/10 10:37:47;;;;;;;18.70;14.45;;;;;;;2.98;65.10;100989.28;5011607;28;20445;-70
2022/12/10 10:40:23;;;;;;;13.90;12.82;;;;;;;2.99;65.24;100988.25;5009488;28;20099;-70
2022/12/10 10:42:54;;;;;;;13.63;12.55;;;;;;;2.98;65.11;100989.28;5021800;28;20124;-70
2022/12/10 10:45:42;;;;;;;13.23;12.25;;;;;;;2.99;65.31;100996.25;5029126;28;20078;-70
2022/12/10 10:48:18;;;;;;;14.38;12.90;;;;;;;2.99;65.44;100993.59;5010510;28;20029;-71
2022/12/10 10:50:54;;;;;;;15.27;13.93;;;;;;;2.98;65.16;100983.94;5010982;28;20506;-71
2022/12/10 10:53:51;;;;;;;22.33;16.50;;;;;;;2.99;65.27;100982.09;5010809;28;20042;-69
2022/12/10 10:56:31;;;;;;;12.45;11.55;;;;;;;2.99;65.36;100980.25;4995840;28;20281;-68
2022/12/10 10:59:06;;;;;;;13.07;11.88;;;;;;;3.00;65.43;100987.25;5011242;28;20030;-69
2022/12/10 11:01:53;;;;;;;17.17;15.63;;;;;;;3.00;65.01;100981.09;5007385;28;20053;-69
2022/12/10 11:04:35;;;;;;;13.32;11.98;;;;;;;3.01;65.01;100985.41;5006919;28;20088;-69
2022/12/10 11:07:03;;;;;;;13.73;12.80;;;;;;;3.01;65.33;100988.91;5010823;28;20386;-75
2022/12/10 11:09:32;;;;;;;25.25;16.40;;;;;;;3.01;65.44;100980.91;5008939;28;20033;-71
2022/12/10 11:12:02;;;;;;;18.20;13.93;;;;;;;3.01;65.52;100974.75;5001110;28;20105;-71
2022/12/10 11:14:41;;;;;;;13.75;12.45;;;;;;;3.02;65.03;100973.72;5011422;28;20597;-70
2022/12/10 11:17:09;;;;;;;15.80;14.48;;;;;;;3.01;65.17;100972.88;5010515;28;20026;-72
2022/12/10 11:19:41;;;;;;;16.55;14.55;;;;;;;3.02;65.13;100965.72;4999464;28;20048;-71
2022/12/10 11:22:21;;;;;;;20.17;16.23;;;;;;;3.03;65.21;100972.72;5004314;28;20049;-70
2022/12/10 11:24:48;;;;;;;15.80;14.05;;;;;;;3.03;65.13;100967.38;5008846;28;20045;-70
2022/12/10 11:27:18;;;;;;;26.33;19.52;;;;;;;3.03;65.12;100970.03;5006315;28;20034;-71
2022/12/10 11:30:01;;;;;;;13.30;12.13;;;;;;;3.03;65.56;100965.53;5005635;28;20030;-71
2022/12/10 11:32:35;;;;;;;17.15;15.60;;;;;;;3.04;65.27;100961.84;5004442;28;20061;-70
2022/12/10 11:35:28;;;;;;;15.60;13.82;;;;;;;3.04;65.10;100967.16;5010307;28;20111;-70